sensor_id;sensor_type;location;lat;lon;timestamp;pressure;altitude;pressure_sealevel;temperature
61595;BMP280;47397;48.194;11.632;2023-12-28T00:00:57;96166.72;;;1.06
61595;BMP280;47397;48.194;11.632;2023-12-28T00:01:57;96160.69;;;0.95
61595;BMP280;47397;48.194;11.632;2023-12-28T00:02:58;96154.16;;;1.03
61595;BMP280;47397;48.194;11.632;2023-12-28T00:03:58;96150.63;;;0.92
61595;BMP280;47397;48.194;11.632;2023-12-28T00:04:59;96153.91;;;0.89
61595;BMP280;47397;48.194;11.632;2023-12-28T00:05:59;96154.97;;;0.55
61595;BMP280;47397;48.194;11.632;2023-12-28T00:07:00;96155.13;;;0.65
61595;BMP280;47397;48.194;11.632;2023-12-28T00:08:00;96148.75;;;0.79
61595;BMP280;47397;48.194;11.632;2023-12-28T00:09:00;96148.81;;;0.83
61595;BMP280;47397;48.194;11.632;2023-12-28T00:10:01;96147.97;;;0.83
61595;BMP280;47397;48.194;11.632;2023-12-28T00:11:01;96154.69;;;0.85
61595;BMP280;47397;48.194;11.632;2023-12-28T00:12:02;96150.47;;;0.83
61595;BMP280;47397;48.194;11.632;2023-12-28T00:13:04;96150.28;;;0.74
61595;BMP280;47397;48.194;11.632;2023-12-28T00:14:04;96150.38;;;0.77
61595;BMP280;47397;48.194;11.632;2023-12-28T00:15:05;96152.84;;;0.75
61595;BMP280;47397;48.194;11.632;2023-12-28T00:16:06;96157.09;;;0.81
61595;BMP280;47397;48.194;11.632;2023-12-28T00:17:06;96153.03;;;0.86
61595;BMP280;47397;48.194;11.632;2023-12-28T00:18:07;96152.22;;;0.87
61595;BMP280;47397;48.194;11.632;2023-12-28T00:19:07;96154.69;;;0.85
61595;BMP280;47397;48.194;11.632;2023-12-28T00:20:08;96153.03;;;0.86
61595;BMP280;47397;48.194;11.632;2023-12-28T00:21:09;96155.44;;;0.80
61595;BMP280;47397;48.194;11.632;2023-12-28T00:22:09;96153.03;;;0.86
61595;BMP280;47397;48.194;11.632;2023-12-28T00:23:10;96150.53;;;0.86
61595;BMP280;47397;48.194;11.632;2023-12-28T00:24:10;96155.47;;;0.83
61595;BMP280;47397;48.194;11.632;2023-12-28T00:25:10;96152.13;;;0.82
61595;BMP280;47397;48.194;11.632;2023-12-28T00:26:11;96152.94;;;0.81
61595;BMP280;47397;48.194;11.632;2023-12-28T00:27:11;96157.75;;;0.72
61595;BMP280;47397;48.194;11.632;2023-12-28T00:28:13;96143.59;;;0.73
61595;BMP280;47397;48.194;11.632;2023-12-28T00:29:13;96155.25;;;0.72
61595;BMP280;47397;48.194;11.632;2023-12-28T00:30:14;96156.03;;;0.68
61595;BMP280;47397;48.194;11.632;2023-12-28T00:31:14;96147.72;;;0.71
61595;BMP280;47397;48.194;11.632;2023-12-28T00:32:15;96156.03;;;0.68
61595;BMP280;47397;48.194;11.632;2023-12-28T00:33:16;96151.75;;;0.62
61595;BMP280;47397;48.194;11.632;2023-12-28T00:34:16;96147.03;;;0.76
61595;BMP280;47397;48.194;11.632;2023-12-28T00:35:17;96141.19;;;0.76
61595;BMP280;47397;48.194;11.632;2023-12-28T00:36:17;96145.41;;;0.80
61595;BMP280;47397;48.194;11.632;2023-12-28T00:37:17;96146.94;;;0.73
61595;BMP280;47397;48.194;11.632;2023-12-28T00:38:18;96147.88;;;0.77
61595;BMP280;47397;48.194;11.632;2023-12-28T00:39:18;96136.88;;;0.70
61595;BMP280;47397;48.194;11.632;2023-12-28T00:40:19;96132.84;;;0.75
61595;BMP280;47397;48.194;11.632;2023-12-28T00:41:19;96137.06;;;0.79
61595;BMP280;47397;48.194;11.632;2023-12-28T00:42:19;96131.94;;;0.73
61595;BMP280;47397;48.194;11.632;2023-12-28T00:43:21;96136.22;;;0.79
61595;BMP280;47397;48.194;11.632;2023-12-28T00:44:21;96134.53;;;0.78
61595;BMP280;47397;48.194;11.632;2023-12-28T00:45:22;96132.88;;;0.78
61595;BMP280;47397;48.194;11.632;2023-12-28T00:46:22;96134.41;;;0.72
61595;BMP280;47397;48.194;11.632;2023-12-28T00:47:23;96132.03;;;0.78
61595;BMP280;47397;48.194;11.632;2023-12-28T00:48:23;96131.19;;;0.77
61595;BMP280;47397;48.194;11.632;2023-12-28T00:49:23;96141.19;;;0.76
61595;BMP280;47397;48.194;11.632;2023-12-28T00:50:24;96142.97;;;0.83
61595;BMP280;47397;48.194;11.632;2023-12-28T00:51:24;96145.53;;;0.86
61595;BMP280;47397;48.194;11.632;2023-12-28T00:52:25;96147.25;;;0.90
61595;BMP280;47397;48.194;11.632;2023-12-28T00:53:25;96142.09;;;0.81
61595;BMP280;47397;48.194;11.632;2023-12-28T00:54:26;96152.13;;;0.82
61595;BMP280;47397;48.194;11.632;2023-12-28T00:55:26;96153.03;;;0.86
61595;BMP280;47397;48.194;11.632;2023-12-28T00:56:26;96156.41;;;0.88
61595;BMP280;47397;48.194;11.632;2023-12-28T00:57:27;96159.53;;;0.76
61595;BMP280;47397;48.194;11.632;2023-12-28T00:58:29;96158.44;;;0.63
61595;BMP280;47397;48.194;11.632;2023-12-28T00:59:29;96157.59;;;0.63
61595;BMP280;47397;48.194;11.632;2023-12-28T01:00:29;96163.44;;;0.63
61595;BMP280;47397;48.194;11.632;2023-12-28T01:01:30;96159.91;;;0.52
61595;BMP280;47397;48.194;11.632;2023-12-28T01:02:30;96164.09;;;0.53
61595;BMP280;47397;48.194;11.632;2023-12-28T01:03:31;96156.75;;;0.62
61595;BMP280;47397;48.194;11.632;2023-12-28T01:04:31;96165.13;;;0.65
61595;BMP280;47397;48.194;11.632;2023-12-28T01:05:31;96170.94;;;0.63
61595;BMP280;47397;48.194;11.632;2023-12-28T01:06:32;96166.09;;;0.71
61595;BMP280;47397;48.194;11.632;2023-12-28T01:07:32;96169.56;;;0.78
61595;BMP280;47397;48.194;11.632;2023-12-28T01:08:33;96169.50;;;0.75
61595;BMP280;47397;48.194;11.632;2023-12-28T01:09:33;96165.25;;;0.71
61595;BMP280;47397;48.194;11.632;2023-12-28T01:10:33;96167.69;;;0.68
61595;BMP280;47397;48.194;11.632;2023-12-28T01:11:34;96159.38;;;0.69
61595;BMP280;47397;48.194;11.632;2023-12-28T01:12:34;96170.97;;;0.65
61595;BMP280;47397;48.194;11.632;2023-12-28T01:13:36;96171.06;;;0.70
61595;BMP280;47397;48.194;11.632;2023-12-28T01:14:36;96173.66;;;0.74
61595;BMP280;47397;48.194;11.632;2023-12-28T01:15:37;96176.81;;;0.66
61595;BMP280;47397;48.194;11.632;2023-12-28T01:16:37;96173.44;;;0.63
61595;BMP280;47397;48.194;11.632;2023-12-28T01:17:38;96180.25;;;0.71
61595;BMP280;47397;48.194;11.632;2023-12-28T01:18:38;96183.66;;;0.74
61595;BMP280;47397;48.194;11.632;2023-12-28T01:19:38;96182.91;;;0.78
61595;BMP280;47397;48.194;11.632;2023-12-28T01:20:39;96179.25;;;0.62
61595;BMP280;47397;48.194;11.632;2023-12-28T01:21:39;96185.13;;;0.65
61595;BMP280;47397;48.194;11.632;2023-12-28T01:22:40;96182.56;;;0.60
61595;BMP280;47397;48.194;11.632;2023-12-28T01:23:40;96186.72;;;0.59
61595;BMP280;47397;48.194;11.632;2023-12-28T01:24:40;96186.69;;;0.58
61595;BMP280;47397;48.194;11.632;2023-12-28T01:25:41;96190.09;;;0.61
61595;BMP280;47397;48.194;11.632;2023-12-28T01:26:41;96192.59;;;0.61
61595;BMP280;47397;48.194;11.632;2023-12-28T01:27:42;96190.09;;;0.61
61595;BMP280;47397;48.194;11.632;2023-12-28T01:28:47;96195.03;;;0.58
61595;BMP280;47397;48.194;11.632;2023-12-28T01:29:47;96197.53;;;0.58
61595;BMP280;47397;48.194;11.632;2023-12-28T01:30:47;96195.91;;;0.60
61595;BMP280;47397;48.194;11.632;2023-12-28T01:31:48;96194.31;;;0.64
61595;BMP280;47397;48.194;11.632;2023-12-28T01:32:48;96201.88;;;0.67
61595;BMP280;47397;48.194;11.632;2023-12-28T01:33:48;96200.38;;;0.75
61595;BMP280;47397;48.194;11.632;2023-12-28T01:34:49;96196.94;;;0.72
61595;BMP280;47397;48.194;11.632;2023-12-28T01:35:49;96202.75;;;0.71
61595;BMP280;47397;48.194;11.632;2023-12-28T01:36:50;96201.13;;;0.73
61595;BMP280;47397;48.194;11.632;2023-12-28T01:37:50;96206.22;;;0.76
61595;BMP280;47397;48.194;11.632;2023-12-28T01:38:50;96205.41;;;0.77
61595;BMP280;47397;48.194;11.632;2023-12-28T01:39:51;96201.88;;;0.69
61595;BMP280;47397;48.194;11.632;2023-12-28T01:40:51;96206.09;;;0.71
61595;BMP280;47397;48.194;11.632;2023-12-28T01:41:51;96209.56;;;0.76
61595;BMP280;47397;48.194;11.632;2023-12-28T01:42:52;96203.78;;;0.79
61595;BMP280;47397;48.194;11.632;2023-12-28T01:43:54;96209.38;;;0.67
61595;BMP280;47397;48.194;11.632;2023-12-28T01:44:54;96209.22;;;0.59
61595;BMP280;47397;48.194;11.632;2023-12-28T01:45:54;96204.38;;;0.69
61595;BMP280;47397;48.194;11.632;2023-12-28T01:46:55;96207.03;;;0.75
61595;BMP280;47397;48.194;11.632;2023-12-28T01:47:57;96205.16;;;0.65
61595;BMP280;47397;48.194;11.632;2023-12-28T01:48:58;96208.50;;;0.65
61595;BMP280;47397;48.194;11.632;2023-12-28T01:49:59;96205.13;;;0.63
61595;BMP280;47397;48.194;11.632;2023-12-28T01:51:00;96201.66;;;0.56
61595;BMP280;47397;48.194;11.632;2023-12-28T01:52:02;96201.81;;;0.23
61595;BMP280;47397;48.194;11.632;2023-12-28T01:53:03;96209.13;;;0.14
61595;BMP280;47397;48.194;11.632;2023-12-28T01:54:04;96194.59;;;0.37
61595;BMP280;47397;48.194;11.632;2023-12-28T01:55:05;96201.50;;;0.47
61595;BMP280;47397;48.194;11.632;2023-12-28T01:56:07;96198.34;;;0.57
61595;BMP280;47397;48.194;11.632;2023-12-28T01:57:08;96199.06;;;0.52
61595;BMP280;47397;48.194;11.632;2023-12-28T01:58:08;96201.72;;;0.59
61595;BMP280;47397;48.194;11.632;2023-12-28T01:59:10;96205.00;;;0.57
61595;BMP280;47397;48.194;11.632;2023-12-28T02:00:11;96200.13;;;0.63
61595;BMP280;47397;48.194;11.632;2023-12-28T02:01:12;96201.84;;;0.66
61595;BMP280;47397;48.194;11.632;2023-12-28T02:02:13;96195.94;;;0.62
61595;BMP280;47397;48.194;11.632;2023-12-28T02:03:13;96197.69;;;0.66
61595;BMP280;47397;48.194;11.632;2023-12-28T02:04:14;96198.50;;;0.65
61595;BMP280;47397;48.194;11.632;2023-12-28T02:05:15;96195.25;;;0.71
61595;BMP280;47397;48.194;11.632;2023-12-28T02:06:15;96201.13;;;0.73
61595;BMP280;47397;48.194;11.632;2023-12-28T02:07:16;96202.91;;;0.77
61595;BMP280;47397;48.194;11.632;2023-12-28T02:08:16;96201.16;;;0.74
61595;BMP280;47397;48.194;11.632;2023-12-28T02:09:16;96201.09;;;0.71
61595;BMP280;47397;48.194;11.632;2023-12-28T02:10:17;96207.75;;;0.71
61595;BMP280;47397;48.194;11.632;2023-12-28T02:11:18;96201.88;;;0.69
61595;BMP280;47397;48.194;11.632;2023-12-28T02:12:19;96197.72;;;0.69
61595;BMP280;47397;48.194;11.632;2023-12-28T02:13:19;96205.16;;;0.65
61595;BMP280;47397;48.194;11.632;2023-12-28T02:14:22;96201.06;;;0.70
61595;BMP280;47397;48.194;11.632;2023-12-28T02:15:23;96195.28;;;0.72
61595;BMP280;47397;48.194;11.632;2023-12-28T02:16:28;96200.38;;;0.75
61595;BMP280;47397;48.194;11.632;2023-12-28T02:17:34;96195.28;;;0.72
61595;BMP280;47397;48.194;11.632;2023-12-28T02:18:38;96196.75;;;0.61
61595;BMP280;47397;48.194;11.632;2023-12-28T02:19:45;96192.44;;;0.54
61595;BMP280;47397;48.194;11.632;2023-12-28T02:20:48;96194.72;;;0.42
61595;BMP280;47397;48.194;11.632;2023-12-28T02:21:50;96197.75;;;0.28
61595;BMP280;47397;48.194;11.632;2023-12-28T02:22:51;96199.59;;;0.37
61595;BMP280;47397;48.194;11.632;2023-12-28T02:23:52;96201.38;;;0.41
61595;BMP280;47397;48.194;11.632;2023-12-28T02:25:05;96196.53;;;0.49
61595;BMP280;47397;48.194;11.632;2023-12-28T02:26:05;96203.84;;;0.40
61595;BMP280;47397;48.194;11.632;2023-12-28T02:27:06;96202.31;;;0.46
61595;BMP280;47397;48.194;11.632;2023-12-28T02:28:06;96206.31;;;0.38
61595;BMP280;47397;48.194;11.632;2023-12-28T02:29:07;96196.44;;;0.05
61595;BMP280;47397;48.194;11.632;2023-12-28T02:30:09;96202.69;;;-0.14
61595;BMP280;47397;48.194;11.632;2023-12-28T02:31:14;96205.28;;;-0.09
61595;BMP280;47397;48.194;11.632;2023-12-28T02:32:15;96203.03;;;0.02
61595;BMP280;47397;48.194;11.632;2023-12-28T02:33:19;96202.66;;;0.24
61595;BMP280;47397;48.194;11.632;2023-12-28T02:34:26;96206.22;;;0.35
61595;BMP280;47397;48.194;11.632;2023-12-28T02:35:31;96208.03;;;0.41
61595;BMP280;47397;48.194;11.632;2023-12-28T02:36:34;96208.13;;;0.45
61595;BMP280;47397;48.194;11.632;2023-12-28T02:37:37;96205.66;;;0.47
61595;BMP280;47397;48.194;11.632;2023-12-28T02:38:38;96212.44;;;0.52
61595;BMP280;47397;48.194;11.632;2023-12-28T02:39:40;96205.81;;;0.56
61595;BMP280;47397;48.194;11.632;2023-12-28T02:40:44;96205.72;;;0.50
61595;BMP280;47397;48.194;11.632;2023-12-28T02:41:45;96197.38;;;0.51
61595;BMP280;47397;48.194;11.632;2023-12-28T02:42:46;96199.84;;;0.48
61595;BMP280;47397;48.194;11.632;2023-12-28T02:43:48;96204.75;;;0.43
61595;BMP280;47397;48.194;11.632;2023-12-28T02:44:50;96197.44;;;0.54
61595;BMP280;47397;48.194;11.632;2023-12-28T02:45:50;96209.88;;;0.49
61595;BMP280;47397;48.194;11.632;2023-12-28T02:46:51;96203.28;;;0.54
61595;BMP280;47397;48.194;11.632;2023-12-28T02:47:51;96200.06;;;0.60
61595;BMP280;47397;48.194;11.632;2023-12-28T02:48:51;96191.72;;;0.59
61595;BMP280;47397;48.194;11.632;2023-12-28T02:49:52;96199.28;;;0.62
61595;BMP280;47397;48.194;11.632;2023-12-28T02:50:52;96195.66;;;0.47
61595;BMP280;47397;48.194;11.632;2023-12-28T02:51:53;96196.59;;;0.53
61595;BMP280;47397;48.194;11.632;2023-12-28T02:52:53;96198.25;;;0.53
61595;BMP280;47397;48.194;11.632;2023-12-28T02:53:53;96195.72;;;0.51
61595;BMP280;47397;48.194;11.632;2023-12-28T02:54:54;96193.06;;;0.42
61595;BMP280;47397;48.194;11.632;2023-12-28T02:55:56;96200.69;;;0.48
61595;BMP280;47397;48.194;11.632;2023-12-28T02:56:56;96201.56;;;0.50
61595;BMP280;47397;48.194;11.632;2023-12-28T02:57:57;96195.72;;;0.51
61595;BMP280;47397;48.194;11.632;2023-12-28T02:58:57;96208.88;;;0.41
61595;BMP280;47397;48.194;11.632;2023-12-28T02:59:58;96203.22;;;0.51
61595;BMP280;47397;48.194;11.632;2023-12-28T03:00:58;96207.41;;;0.52
61595;BMP280;47397;48.194;11.632;2023-12-28T03:01:59;96198.13;;;0.45
61595;BMP280;47397;48.194;11.632;2023-12-28T03:02:59;96202.03;;;0.34
61595;BMP280;47397;48.194;11.632;2023-12-28T03:03:59;96204.56;;;0.36
61595;BMP280;47397;48.194;11.632;2023-12-28T03:05:00;96204.34;;;0.25
61595;BMP280;47397;48.194;11.632;2023-12-28T03:06:00;96195.97;;;0.23
61595;BMP280;47397;48.194;11.632;2023-12-28T03:07:01;96202.47;;;0.15
61595;BMP280;47397;48.194;11.632;2023-12-28T03:08:01;96205.09;;;0.21
61595;BMP280;47397;48.194;11.632;2023-12-28T03:09:01;96194.97;;;0.15
61595;BMP280;47397;48.194;11.632;2023-12-28T03:10:02;96197.47;;;0.15
61595;BMP280;47397;48.194;11.632;2023-12-28T03:11:04;96199.03;;;0.10
61595;BMP280;47397;48.194;11.632;2023-12-28T03:12:05;96195.66;;;0.08
61595;BMP280;47397;48.194;11.632;2023-12-28T03:13:06;96197.31;;;0.07
61595;BMP280;47397;48.194;11.632;2023-12-28T03:14:06;96194.88;;;0.10
61595;BMP280;47397;48.194;11.632;2023-12-28T03:15:07;96201.53;;;0.10
61595;BMP280;47397;48.194;11.632;2023-12-28T03:16:07;96198.84;;;0.01
61595;BMP280;47397;48.194;11.632;2023-12-28T03:17:08;96192.56;;;0.19
61595;BMP280;47397;48.194;11.632;2023-12-28T03:18:08;96199.25;;;0.20
61595;BMP280;47397;48.194;11.632;2023-12-28T03:19:08;96195.38;;;0.35
61595;BMP280;47397;48.194;11.632;2023-12-28T03:20:10;96191.78;;;0.22
61595;BMP280;47397;48.194;11.632;2023-12-28T03:21:10;96187.41;;;0.12
61595;BMP280;47397;48.194;11.632;2023-12-28T03:22:10;96193.13;;;0.06
61595;BMP280;47397;48.194;11.632;2023-12-28T03:23:11;96190.75;;;0.12
61595;BMP280;47397;48.194;11.632;2023-12-28T03:24:11;96194.19;;;0.17
61595;BMP280;47397;48.194;11.632;2023-12-28T03:25:12;96180.81;;;0.14
61595;BMP280;47397;48.194;11.632;2023-12-28T03:26:14;96182.41;;;0.12
61595;BMP280;47397;48.194;11.632;2023-12-28T03:27:14;96182.63;;;0.22
61595;BMP280;47397;48.194;11.632;2023-12-28T03:28:14;96179.50;;;0.32
61595;BMP280;47397;48.194;11.632;2023-12-28T03:29:15;96189.59;;;0.37
61595;BMP280;47397;48.194;11.632;2023-12-28T03:30:15;96186.16;;;0.32
61595;BMP280;47397;48.194;11.632;2023-12-28T03:31:16;96181.94;;;0.29
61595;BMP280;47397;48.194;11.632;2023-12-28T03:32:16;96182.16;;;0.39
61595;BMP280;47397;48.194;11.632;2023-12-28T03:33:17;96172.19;;;0.40
61595;BMP280;47397;48.194;11.632;2023-12-28T03:34:17;96176.31;;;0.38
61595;BMP280;47397;48.194;11.632;2023-12-28T03:35:18;96178.13;;;0.45
61595;BMP280;47397;48.194;11.632;2023-12-28T03:36:18;96176.44;;;0.44
61595;BMP280;47397;48.194;11.632;2023-12-28T03:37:19;96174.78;;;0.45
61595;BMP280;47397;48.194;11.632;2023-12-28T03:38:19;96168.84;;;0.40
61595;BMP280;47397;48.194;11.632;2023-12-28T03:39:19;96170.50;;;0.39
61595;BMP280;47397;48.194;11.632;2023-12-28T03:40:20;96164.53;;;0.34
61595;BMP280;47397;48.194;11.632;2023-12-28T03:41:22;96162.53;;;0.18
61595;BMP280;47397;48.194;11.632;2023-12-28T03:42:22;96165.19;;;0.25
61595;BMP280;47397;48.194;11.632;2023-12-28T03:43:22;96166.22;;;0.35
61595;BMP280;47397;48.194;11.632;2023-12-28T03:44:23;96163.09;;;0.44
61595;BMP280;47397;48.194;11.632;2023-12-28T03:45:23;96168.38;;;0.59
61595;BMP280;47397;48.194;11.632;2023-12-28T03:46:24;96177.59;;;0.61
61595;BMP280;47397;48.194;11.632;2023-12-28T03:47:24;96173.47;;;0.65
61595;BMP280;47397;48.194;11.632;2023-12-28T03:48:24;96180.13;;;0.65
61595;BMP280;47397;48.194;11.632;2023-12-28T03:49:25;96182.75;;;0.71
61595;BMP280;47397;48.194;11.632;2023-12-28T03:50:25;96179.41;;;0.70
61595;BMP280;47397;48.194;11.632;2023-12-28T03:51:26;96180.25;;;0.71
61595;BMP280;47397;48.194;11.632;2023-12-28T03:52:26;96177.69;;;0.68
61595;BMP280;47397;48.194;11.632;2023-12-28T03:53:27;96180.13;;;0.65
61595;BMP280;47397;48.194;11.632;2023-12-28T03:54:27;96178.44;;;0.63
61595;BMP280;47397;48.194;11.632;2023-12-28T03:55:27;96182.63;;;0.65
61595;BMP280;47397;48.194;11.632;2023-12-28T03:56:29;96180.13;;;0.65
61595;BMP280;47397;48.194;11.632;2023-12-28T03:57:29;96183.56;;;0.70
61595;BMP280;47397;48.194;11.632;2023-12-28T03:58:30;96184.38;;;0.69
61595;BMP280;47397;48.194;11.632;2023-12-28T03:59:30;96181.09;;;0.71
61595;BMP280;47397;48.194;11.632;2023-12-28T04:00:31;96188.63;;;0.73
61595;BMP280;47397;48.194;11.632;2023-12-28T04:01:31;96192.94;;;0.78
61595;BMP280;47397;48.194;11.632;2023-12-28T04:02:31;96196.31;;;0.80
61595;BMP280;47397;48.194;11.632;2023-12-28T04:03:32;96205.47;;;0.80
61595;BMP280;47397;48.194;11.632;2023-12-28T04:04:32;96195.44;;;0.78
61595;BMP280;47397;48.194;11.632;2023-12-28T04:05:32;96197.81;;;0.74
61595;BMP280;47397;48.194;11.632;2023-12-28T04:06:33;96201.84;;;0.66
61595;BMP280;47397;48.194;11.632;2023-12-28T04:07:33;96204.41;;;0.70
61595;BMP280;47397;48.194;11.632;2023-12-28T04:08:34;96208.59;;;0.70
61595;BMP280;47397;48.194;11.632;2023-12-28T04:09:34;96205.25;;;0.71
61595;BMP280;47397;48.194;11.632;2023-12-28T04:10:34;96201.13;;;0.73
61595;BMP280;47397;48.194;11.632;2023-12-28T04:11:36;96208.44;;;0.62
61595;BMP280;47397;48.194;11.632;2023-12-28T04:12:37;96218.34;;;0.57
61595;BMP280;47397;48.194;11.632;2023-12-28T04:13:37;96206.78;;;0.62
61595;BMP280;47397;48.194;11.632;2023-12-28T04:14:37;96211.81;;;0.64
61595;BMP280;47397;48.194;11.632;2023-12-28T04:15:41;96207.66;;;0.65
61595;BMP280;47397;48.194;11.632;2023-12-28T04:16:41;96206.09;;;0.70
61595;BMP280;47397;48.194;11.632;2023-12-28T04:17:42;96211.84;;;0.66
61595;BMP280;47397;48.194;11.632;2023-12-28T04:18:43;96214.22;;;0.59
61595;BMP280;47397;48.194;11.632;2023-12-28T04:19:43;96218.34;;;0.57
61595;BMP280;47397;48.194;11.632;2023-12-28T04:20:43;96214.16;;;0.56
61595;BMP280;47397;48.194;11.632;2023-12-28T04:21:44;96209.16;;;0.56
61595;BMP280;47397;48.194;11.632;2023-12-28T04:22:44;96208.34;;;0.57
61595;BMP280;47397;48.194;11.632;2023-12-28T04:23:45;96205.16;;;0.65
61595;BMP280;47397;48.194;11.632;2023-12-28T04:24:45;96207.56;;;0.60
61595;BMP280;47397;48.194;11.632;2023-12-28T04:25:45;96215.81;;;0.56
61595;BMP280;47397;48.194;11.632;2023-12-28T04:26:47;96219.13;;;0.53
61595;BMP280;47397;48.194;11.632;2023-12-28T04:27:50;96219.03;;;0.49
61595;BMP280;47397;48.194;11.632;2023-12-28T04:28:51;96211.63;;;0.53
61595;BMP280;47397;48.194;11.632;2023-12-28T04:29:51;96212.44;;;0.54
61595;BMP280;47397;48.194;11.632;2023-12-28T04:30:52;96219.97;;;0.54
61595;BMP280;47397;48.194;11.632;2023-12-28T04:31:52;96219.16;;;0.56
61595;BMP280;47397;48.194;11.632;2023-12-28T04:32:52;96220.03;;;0.58
61595;BMP280;47397;48.194;11.632;2023-12-28T04:33:53;96225.84;;;0.56
61595;BMP280;47397;48.194;11.632;2023-12-28T04:34:53;96221.63;;;0.53
61595;BMP280;47397;48.194;11.632;2023-12-28T04:35:54;96219.97;;;0.55
61595;BMP280;47397;48.194;11.632;2023-12-28T04:36:54;96221.50;;;0.47
61595;BMP280;47397;48.194;11.632;2023-12-28T04:37:54;96215.69;;;0.48
61595;BMP280;47397;48.194;11.632;2023-12-28T04:38:55;96226.22;;;0.35
61595;BMP280;47397;48.194;11.632;2023-12-28T04:39:55;96220.47;;;0.38
61595;BMP280;47397;48.194;11.632;2023-12-28T04:40:56;96216.50;;;0.47
61595;BMP280;47397;48.194;11.632;2023-12-28T04:41:57;96215.81;;;0.56
61595;BMP280;47397;48.194;11.632;2023-12-28T04:42:58;96217.41;;;0.51
61595;BMP280;47397;48.194;11.632;2023-12-28T04:43:58;96223.19;;;0.48
61595;BMP280;47397;48.194;11.632;2023-12-28T04:44:58;96223.97;;;0.46
61595;BMP280;47397;48.194;11.632;2023-12-28T04:46:02;96224.88;;;0.49
61595;BMP280;47397;48.194;11.632;2023-12-28T04:47:03;96220.53;;;0.41
61595;BMP280;47397;48.194;11.632;2023-12-28T04:48:04;96223.03;;;0.41
61595;BMP280;47397;48.194;11.632;2023-12-28T04:49:04;96219.88;;;0.49
61595;BMP280;47397;48.194;11.632;2023-12-28T04:50:06;96223.31;;;0.54
61595;BMP280;47397;48.194;11.632;2023-12-28T04:51:06;96223.25;;;0.51
61595;BMP280;47397;48.194;11.632;2023-12-28T04:52:07;96221.47;;;0.46
61595;BMP280;47397;48.194;11.632;2023-12-28T04:53:07;96221.50;;;0.47
61595;BMP280;47397;48.194;11.632;2023-12-28T04:54:07;96225.72;;;0.50
61595;BMP280;47397;48.194;11.632;2023-12-28T04:55:08;96223.25;;;0.51
61595;BMP280;47397;48.194;11.632;2023-12-28T04:56:08;96224.84;;;0.48
61595;BMP280;47397;48.194;11.632;2023-12-28T04:57:10;96221.44;;;0.44
61595;BMP280;47397;48.194;11.632;2023-12-28T04:58:10;96217.84;;;0.33
61595;BMP280;47397;48.194;11.632;2023-12-28T04:59:11;96223.03;;;0.41
61595;BMP280;47397;48.194;11.632;2023-12-28T05:00:12;96224.81;;;0.46
61595;BMP280;47397;48.194;11.632;2023-12-28T05:01:12;96224.09;;;0.52
61595;BMP280;47397;48.194;11.632;2023-12-28T05:02:13;96228.25;;;0.51
61595;BMP280;47397;48.194;11.632;2023-12-28T05:03:13;96216.59;;;0.53
61595;BMP280;47397;48.194;11.632;2023-12-28T05:04:13;96223.34;;;0.56
61595;BMP280;47397;48.194;11.632;2023-12-28T05:05:14;96220.84;;;0.57
61595;BMP280;47397;48.194;11.632;2023-12-28T05:06:14;96222.53;;;0.58
61595;BMP280;47397;48.194;11.632;2023-12-28T05:07:15;96215.72;;;0.50
61595;BMP280;47397;48.194;11.632;2023-12-28T05:08:15;96222.28;;;0.45
61595;BMP280;47397;48.194;11.632;2023-12-28T05:09:16;96226.50;;;0.47
61595;BMP280;47397;48.194;11.632;2023-12-28T05:10:16;96229.00;;;0.47
61595;BMP280;47397;48.194;11.632;2023-12-28T05:11:16;96234.81;;;0.46
61595;BMP280;47397;48.194;11.632;2023-12-28T05:12:18;96231.38;;;0.41
61595;BMP280;47397;48.194;11.632;2023-12-28T05:13:18;96233.13;;;0.45
61595;BMP280;47397;48.194;11.632;2023-12-28T05:14:19;96229.88;;;0.49
61595;BMP280;47397;48.194;11.632;2023-12-28T05:15:19;96233.94;;;0.44
61595;BMP280;47397;48.194;11.632;2023-12-28T05:16:20;96232.28;;;0.45
61595;BMP280;47397;48.194;11.632;2023-12-28T05:17:20;96236.88;;;0.26
61595;BMP280;47397;48.194;11.632;2023-12-28T05:18:21;96235.25;;;0.28
61595;BMP280;47397;48.194;11.632;2023-12-28T05:19:21;96246.22;;;0.35
61595;BMP280;47397;48.194;11.632;2023-12-28T05:20:21;96243.88;;;0.41
61595;BMP280;47397;48.194;11.632;2023-12-28T05:21:22;96245.69;;;0.48
61595;BMP280;47397;48.194;11.632;2023-12-28T05:22:22;96248.22;;;0.50
61595;BMP280;47397;48.194;11.632;2023-12-28T05:23:22;96248.91;;;0.43
61595;BMP280;47397;48.194;11.632;2023-12-28T05:24:23;96249.81;;;0.46
61595;BMP280;47397;48.194;11.632;2023-12-28T05:25:23;96253.13;;;0.45
61595;BMP280;47397;48.194;11.632;2023-12-28T05:26:24;96247.41;;;0.51
61595;BMP280;47397;48.194;11.632;2023-12-28T05:27:25;96249.78;;;0.45
61595;BMP280;47397;48.194;11.632;2023-12-28T05:28:26;96250.63;;;0.45
61595;BMP280;47397;48.194;11.632;2023-12-28T05:29:26;96249.75;;;0.43
61595;BMP280;47397;48.194;11.632;2023-12-28T05:30:26;96246.31;;;0.38
61595;BMP280;47397;48.194;11.632;2023-12-28T05:31:27;96251.09;;;0.29
61595;BMP280;47397;48.194;11.632;2023-12-28T05:32:27;96241.91;;;0.28
61595;BMP280;47397;48.194;11.632;2023-12-28T05:33:28;96249.41;;;0.28
61595;BMP280;47397;48.194;11.632;2023-12-28T05:34:28;96250.25;;;0.28
61595;BMP280;47397;48.194;11.632;2023-12-28T05:35:28;96240.25;;;0.28
61595;BMP280;47397;48.194;11.632;2023-12-28T05:36:29;96239.41;;;0.28
61595;BMP280;47397;48.194;11.632;2023-12-28T05:37:29;96239.47;;;0.31
61595;BMP280;47397;48.194;11.632;2023-12-28T05:38:29;96237.78;;;0.30
61595;BMP280;47397;48.194;11.632;2023-12-28T05:39:30;96233.47;;;0.23
61595;BMP280;47397;48.194;11.632;2023-12-28T05:40:30;96239.28;;;0.22
61595;BMP280;47397;48.194;11.632;2023-12-28T05:41:31;96247.53;;;0.18
61595;BMP280;47397;48.194;11.632;2023-12-28T05:42:32;96235.88;;;0.18
61595;BMP280;47397;48.194;11.632;2023-12-28T05:43:33;96242.75;;;0.28
61595;BMP280;47397;48.194;11.632;2023-12-28T05:44:33;96242.00;;;0.32
61595;BMP280;47397;48.194;11.632;2023-12-28T05:45:33;96244.59;;;0.37
61595;BMP280;47397;48.194;11.632;2023-12-28T05:46:34;96256.41;;;0.43
61595;BMP280;47397;48.194;11.632;2023-12-28T05:47:34;96250.41;;;0.36
61595;BMP280;47397;48.194;11.632;2023-12-28T05:48:35;96252.91;;;0.36
61595;BMP280;47397;48.194;11.632;2023-12-28T05:49:37;96250.47;;;0.38
61595;BMP280;47397;48.194;11.632;2023-12-28T05:50:37;96256.09;;;0.29